sensor_id;sensor_type;location;lat;lon;timestamp;P1;durP1;ratioP1;P2;durP2;ratioP2
23302;SDS011;11820;48.738;9.092;2024-03-02T00:01:48;8.80;;;6.87;;
23302;SDS011;11820;48.738;9.092;2024-03-02T00:04:13;9.17;;;6.93;;
23302;SDS011;11820;48.738;9.092;2024-03-02T00:06:38;7.70;;;6.47;;
23302;SDS011;11820;48.738;9.092;2024-03-02T00:09:04;8.17;;;6.60;;
23302;SDS011;11820;48.738;9.092;2024-03-02T00:11:29;6.70;;;6.10;;
23302;SDS011;11820;48.738;9.092;2024-03-02T00:13:54;7.50;;;6.70;;
23302;SDS011;11820;48.738;9.092;2024-03-02T00:16:20;8.60;;;7.67;;
23302;SDS011;11820;48.738;9.092;2024-03-02T00:18:45;7.60;;;6.83;;
23302;SDS011;11820;48.738;9.092;2024-03-02T00:21:11;8.63;;;7.37;;
23302;SDS011;11820;48.738;9.092;2024-03-02T00:23:38;8.90;;;7.97;;
23302;SDS011;11820;48.738;9.092;2024-03-02T00:26:03;9.20;;;7.73;;
23302;SDS011;11820;48.738;9.092;2024-03-02T00:28:30;9.20;;;7.73;;
23302;SDS011;11820;48.738;9.092;2024-03-02T00:33:36;9.47;;;8.20;;
23302;SDS011;11820;48.738;9.092;2024-03-02T00:36:04;8.90;;;7.80;;
23302;SDS011;11820;48.738;9.092;2024-03-02T00:38:30;9.03;;;7.83;;
23302;SDS011;11820;48.738;9.092;2024-03-02T00:40:57;9.37;;;7.90;;
23302;SDS011;11820;48.738;9.092;2024-03-02T00:43:43;10.67;;;8.27;;
23302;SDS011;11820;48.738;9.092;2024-03-02T00:46:19;8.67;;;7.50;;
23302;SDS011;11820;48.738;9.092;2024-03-02T00:51:24;10.73;;;7.73;;
23302;SDS011;11820;48.738;9.092;2024-03-02T00:53:54;8.83;;;7.43;;
23302;SDS011;11820;48.738;9.092;2024-03-02T00:56:21;9.00;;;7.97;;
23302;SDS011;11820;48.738;9.092;2024-03-02T00:58:47;9.27;;;7.90;;
23302;SDS011;11820;48.738;9.092;2024-03-02T01:01:13;10.47;;;8.60;;
23302;SDS011;11820;48.738;9.092;2024-03-02T01:03:38;9.60;;;8.27;;
23302;SDS011;11820;48.738;9.092;2024-03-02T01:06:04;10.37;;;9.03;;
23302;SDS011;11820;48.738;9.092;2024-03-02T01:08:31;12.30;;;9.30;;
23302;SDS011;11820;48.738;9.092;2024-03-02T01:10:57;12.53;;;8.83;;
23302;SDS011;11820;48.738;9.092;2024-03-02T01:13:22;11.63;;;9.70;;
23302;SDS011;11820;48.738;9.092;2024-03-02T01:15:48;13.60;;;10.03;;
23302;SDS011;11820;48.738;9.092;2024-03-02T01:18:14;11.93;;;9.10;;
23302;SDS011;11820;48.738;9.092;2024-03-02T01:20:39;14.20;;;10.63;;
23302;SDS011;11820;48.738;9.092;2024-03-02T01:23:04;12.73;;;10.57;;
23302;SDS011;11820;48.738;9.092;2024-03-02T01:25:30;10.60;;;9.23;;
23302;SDS011;11820;48.738;9.092;2024-03-02T01:27:55;11.70;;;9.87;;
23302;SDS011;11820;48.738;9.092;2024-03-02T01:30:20;11.60;;;10.03;;
23302;SDS011;11820;48.738;9.092;2024-03-02T01:32:46;12.60;;;10.03;;
23302;SDS011;11820;48.738;9.092;2024-03-02T01:35:12;13.13;;;10.37;;
23302;SDS011;11820;48.738;9.092;2024-03-02T01:37:37;12.77;;;10.80;;
23302;SDS011;11820;48.738;9.092;2024-03-02T01:40:03;15.07;;;12.17;;
23302;SDS011;11820;48.738;9.092;2024-03-02T01:42:33;13.83;;;10.90;;
23302;SDS011;11820;48.738;9.092;2024-03-02T01:44:59;12.83;;;10.73;;
23302;SDS011;11820;48.738;9.092;2024-03-02T01:47:25;14.57;;;11.67;;
23302;SDS011;11820;48.738;9.092;2024-03-02T01:49:50;14.23;;;11.00;;
23302;SDS011;11820;48.738;9.092;2024-03-02T01:52:16;13.13;;;11.20;;
23302;SDS011;11820;48.738;9.092;2024-03-02T01:54:41;12.30;;;10.93;;
23302;SDS011;11820;48.738;9.092;2024-03-02T01:57:06;13.43;;;10.77;;
23302;SDS011;11820;48.738;9.092;2024-03-02T01:59:32;14.37;;;11.23;;
23302;SDS011;11820;48.738;9.092;2024-03-02T02:01:57;12.87;;;10.07;;
23302;SDS011;11820;48.738;9.092;2024-03-02T02:04:22;14.83;;;11.73;;
23302;SDS011;11820;48.738;9.092;2024-03-02T02:06:52;12.97;;;11.43;;
23302;SDS011;11820;48.738;9.092;2024-03-02T02:09:17;14.30;;;11.87;;
23302;SDS011;11820;48.738;9.092;2024-03-02T02:11:43;16.60;;;12.40;;
23302;SDS011;11820;48.738;9.092;2024-03-02T02:14:08;12.93;;;11.53;;
23302;SDS011;11820;48.738;9.092;2024-03-02T02:16:34;15.23;;;11.70;;
23302;SDS011;11820;48.738;9.092;2024-03-02T02:18:59;16.57;;;11.80;;
23302;SDS011;11820;48.738;9.092;2024-03-02T02:21:24;15.40;;;11.90;;
23302;SDS011;11820;48.738;9.092;2024-03-02T02:23:50;13.47;;;11.57;;
23302;SDS011;11820;48.738;9.092;2024-03-02T02:26:15;13.43;;;12.03;;
23302;SDS011;11820;48.738;9.092;2024-03-02T02:28:41;13.47;;;11.63;;
23302;SDS011;11820;48.738;9.092;2024-03-02T02:31:11;13.43;;;11.40;;
23302;SDS011;11820;48.738;9.092;2024-03-02T02:33:39;14.57;;;12.23;;
23302;SDS011;11820;48.738;9.092;2024-03-02T02:36:05;13.73;;;12.10;;
23302;SDS011;11820;48.738;9.092;2024-03-02T02:38:30;12.87;;;10.87;;
23302;SDS011;11820;48.738;9.092;2024-03-02T02:40:58;13.80;;;11.73;;
23302;SDS011;11820;48.738;9.092;2024-03-02T02:43:23;15.67;;;11.97;;
23302;SDS011;11820;48.738;9.092;2024-03-02T02:45:48;18.10;;;11.90;;
23302;SDS011;11820;48.738;9.092;2024-03-02T02:48:14;12.93;;;11.20;;
23302;SDS011;11820;48.738;9.092;2024-03-02T02:50:39;14.47;;;12.33;;
23302;SDS011;11820;48.738;9.092;2024-03-02T02:53:05;15.40;;;12.00;;
23302;SDS011;11820;48.738;9.092;2024-03-02T02:55:31;16.10;;;12.37;;
23302;SDS011;11820;48.738;9.092;2024-03-02T02:57:56;13.33;;;11.00;;
23302;SDS011;11820;48.738;9.092;2024-03-02T03:00:21;15.33;;;11.00;;
23302;SDS011;11820;48.738;9.092;2024-03-02T03:02:48;14.47;;;12.07;;
23302;SDS011;11820;48.738;9.092;2024-03-02T03:05:14;13.63;;;11.67;;
23302;SDS011;11820;48.738;9.092;2024-03-02T03:07:41;16.27;;;12.13;;
23302;SDS011;11820;48.738;9.092;2024-03-02T03:10:07;14.80;;;11.00;;
23302;SDS011;11820;48.738;9.092;2024-03-02T03:12:33;14.90;;;11.50;;
23302;SDS011;11820;48.738;9.092;2024-03-02T03:14:59;13.40;;;11.33;;
23302;SDS011;11820;48.738;9.092;2024-03-02T03:17:25;13.43;;;11.13;;
23302;SDS011;11820;48.738;9.092;2024-03-02T03:19:50;12.40;;;10.60;;
23302;SDS011;11820;48.738;9.092;2024-03-02T03:22:16;12.63;;;11.33;;
23302;SDS011;11820;48.738;9.092;2024-03-02T03:24:42;15.53;;;11.27;;
23302;SDS011;11820;48.738;9.092;2024-03-02T03:27:07;14.63;;;12.33;;
23302;SDS011;11820;48.738;9.092;2024-03-02T03:29:32;12.97;;;11.17;;
23302;SDS011;11820;48.738;9.092;2024-03-02T03:31:58;13.87;;;10.83;;
23302;SDS011;11820;48.738;9.092;2024-03-02T03:34:23;13.53;;;10.30;;
23302;SDS011;11820;48.738;9.092;2024-03-02T03:36:48;13.60;;;11.73;;
23302;SDS011;11820;48.738;9.092;2024-03-02T03:39:14;12.90;;;10.70;;
23302;SDS011;11820;48.738;9.092;2024-03-02T03:41:42;15.10;;;11.40;;
23302;SDS011;11820;48.738;9.092;2024-03-02T03:44:07;12.80;;;10.40;;
23302;SDS011;11820;48.738;9.092;2024-03-02T03:46:33;13.70;;;10.83;;
23302;SDS011;11820;48.738;9.092;2024-03-02T03:48:58;12.00;;;9.70;;
23302;SDS011;11820;48.738;9.092;2024-03-02T03:51:24;12.87;;;10.50;;
23302;SDS011;11820;48.738;9.092;2024-03-02T03:53:49;11.73;;;10.50;;
23302;SDS011;11820;48.738;9.092;2024-03-02T03:56:14;12.47;;;10.10;;
23302;SDS011;11820;48.738;9.092;2024-03-02T03:58:40;11.80;;;10.23;;
23302;SDS011;11820;48.738;9.092;2024-03-02T04:01:05;13.63;;;10.43;;
23302;SDS011;11820;48.738;9.092;2024-03-02T04:03:30;12.50;;;9.90;;
23302;SDS011;11820;48.738;9.092;2024-03-02T04:05:56;12.47;;;9.83;;
23302;SDS011;11820;48.738;9.092;2024-03-02T04:08:21;13.83;;;10.70;;
23302;SDS011;11820;48.738;9.092;2024-03-02T04:10:47;13.97;;;10.80;;
23302;SDS011;11820;48.738;9.092;2024-03-02T04:13:12;11.57;;;10.37;;
23302;SDS011;11820;48.738;9.092;2024-03-02T04:15:37;14.10;;;10.83;;
23302;SDS011;11820;48.738;9.092;2024-03-02T04:18:03;13.60;;;10.97;;
23302;SDS011;11820;48.738;9.092;2024-03-02T04:20:28;13.47;;;11.20;;
23302;SDS011;11820;48.738;9.092;2024-03-02T04:22:55;12.83;;;10.10;;
23302;SDS011;11820;48.738;9.092;2024-03-02T04:25:20;14.10;;;11.40;;
23302;SDS011;11820;48.738;9.092;2024-03-02T04:27:45;16.07;;;12.23;;
23302;SDS011;11820;48.738;9.092;2024-03-02T04:30:11;16.47;;;12.87;;
23302;SDS011;11820;48.738;9.092;2024-03-02T04:32:36;16.07;;;12.00;;
23302;SDS011;11820;48.738;9.092;2024-03-02T04:35:02;12.20;;;10.83;;
23302;SDS011;11820;48.738;9.092;2024-03-02T04:37:27;12.50;;;10.37;;
23302;SDS011;11820;48.738;9.092;2024-03-02T04:39:52;13.23;;;10.53;;
23302;SDS011;11820;48.738;9.092;2024-03-02T04:42:17;12.73;;;10.43;;
23302;SDS011;11820;48.738;9.092;2024-03-02T04:44:43;14.67;;;10.30;;
23302;SDS011;11820;48.738;9.092;2024-03-02T04:47:08;11.80;;;10.20;;
23302;SDS011;11820;48.738;9.092;2024-03-02T04:49:33;12.33;;;9.80;;
23302;SDS011;11820;48.738;9.092;2024-03-02T04:51:59;14.97;;;10.80;;
23302;SDS011;11820;48.738;9.092;2024-03-02T04:54:24;13.10;;;11.00;;
23302;SDS011;11820;48.738;9.092;2024-03-02T04:56:49;13.97;;;10.87;;
23302;SDS011;11820;48.738;9.092;2024-03-02T04:59:15;14.07;;;10.87;;
23302;SDS011;11820;48.738;9.092;2024-03-02T05:01:42;13.57;;;10.67;;
23302;SDS011;11820;48.738;9.092;2024-03-02T05:04:08;12.67;;;10.07;;
23302;SDS011;11820;48.738;9.092;2024-03-02T05:06:33;12.97;;;10.77;;
23302;SDS011;11820;48.738;9.092;2024-03-02T05:08:58;12.63;;;10.50;;
23302;SDS011;11820;48.738;9.092;2024-03-02T05:11:24;14.03;;;10.80;;
23302;SDS011;11820;48.738;9.092;2024-03-02T05:14:04;13.00;;;10.57;;
23302;SDS011;11820;48.738;9.092;2024-03-02T05:16:34;11.43;;;9.63;;
23302;SDS011;11820;48.738;9.092;2024-03-02T05:19:00;11.57;;;9.53;;
23302;SDS011;11820;48.738;9.092;2024-03-02T05:21:26;12.20;;;10.40;;
23302;SDS011;11820;48.738;9.092;2024-03-02T05:23:51;10.87;;;8.77;;
23302;SDS011;11820;48.738;9.092;2024-03-02T05:26:16;12.10;;;9.83;;
23302;SDS011;11820;48.738;9.092;2024-03-02T05:28:42;12.17;;;10.83;;
23302;SDS011;11820;48.738;9.092;2024-03-02T05:31:10;11.00;;;9.43;;
23302;SDS011;11820;48.738;9.092;2024-03-02T05:33:37;12.53;;;9.87;;
23302;SDS011;11820;48.738;9.092;2024-03-02T05:36:03;12.33;;;9.57;;
23302;SDS011;11820;48.738;9.092;2024-03-02T05:38:29;12.43;;;9.50;;
23302;SDS011;11820;48.738;9.092;2024-03-02T05:40:54;10.10;;;8.67;;
23302;SDS011;11820;48.738;9.092;2024-03-02T05:43:20;11.00;;;9.07;;
23302;SDS011;11820;48.738;9.092;2024-03-02T05:45:45;11.17;;;9.10;;
23302;SDS011;11820;48.738;9.092;2024-03-02T05:48:10;11.30;;;9.50;;
23302;SDS011;11820;48.738;9.092;2024-03-02T05:50:36;10.23;;;8.47;;
23302;SDS011;11820;48.738;9.092;2024-03-02T05:53:01;11.00;;;9.40;;
23302;SDS011;11820;48.738;9.092;2024-03-02T05:55:26;9.40;;;7.73;;
23302;SDS011;11820;48.738;9.092;2024-03-02T05:57:51;11.60;;;8.83;;
23302;SDS011;11820;48.738;9.092;2024-03-02T06:00:32;10.83;;;8.90;;
23302;SDS011;11820;48.738;9.092;2024-03-02T06:02:58;12.93;;;8.67;;
23302;SDS011;11820;48.738;9.092;2024-03-02T06:05:23;11.63;;;9.40;;
23302;SDS011;11820;48.738;9.092;2024-03-02T06:07:49;10.83;;;8.33;;
23302;SDS011;11820;48.738;9.092;2024-03-02T06:10:15;11.33;;;8.70;;
23302;SDS011;11820;48.738;9.092;2024-03-02T06:12:40;12.90;;;9.17;;
23302;SDS011;11820;48.738;9.092;2024-03-02T06:15:06;9.37;;;8.20;;
23302;SDS011;11820;48.738;9.092;2024-03-02T06:17:31;10.50;;;8.70;;
23302;SDS011;11820;48.738;9.092;2024-03-02T06:19:57;10.03;;;8.83;;
23302;SDS011;11820;48.738;9.092;2024-03-02T06:22:22;9.47;;;8.20;;
23302;SDS011;11820;48.738;9.092;2024-03-02T06:24:49;9.83;;;8.43;;
23302;SDS011;11820;48.738;9.092;2024-03-02T06:27:15;11.03;;;8.47;;
23302;SDS011;11820;48.738;9.092;2024-03-02T06:29:40;11.33;;;8.87;;
23302;SDS011;11820;48.738;9.092;2024-03-02T06:32:06;8.77;;;7.93;;
23302;SDS011;11820;48.738;9.092;2024-03-02T06:34:31;9.73;;;8.43;;
23302;SDS011;11820;48.738;9.092;2024-03-02T06:36:56;8.77;;;7.43;;
23302;SDS011;11820;48.738;9.092;2024-03-02T06:39:22;8.57;;;7.30;;
23302;SDS011;11820;48.738;9.092;2024-03-02T06:41:47;10.40;;;8.17;;
23302;SDS011;11820;48.738;9.092;2024-03-02T06:44:12;10.27;;;8.37;;
23302;SDS011;11820;48.738;9.092;2024-03-02T06:46:38;10.27;;;8.30;;
23302;SDS011;11820;48.738;9.092;2024-03-02T06:49:03;10.77;;;8.47;;
23302;SDS011;11820;48.738;9.092;2024-03-02T06:51:29;10.37;;;9.27;;
23302;SDS011;11820;48.738;9.092;2024-03-02T06:53:55;9.50;;;8.13;;
23302;SDS011;11820;48.738;9.092;2024-03-02T06:56:20;11.47;;;9.70;;
23302;SDS011;11820;48.738;9.092;2024-03-02T06:58:46;9.77;;;8.43;;
23302;SDS011;11820;48.738;9.092;2024-03-02T07:01:14;11.33;;;8.87;;
23302;SDS011;11820;48.738;9.092;2024-03-02T07:03:40;9.80;;;7.90;;
23302;SDS011;11820;48.738;9.092;2024-03-02T07:06:05;10.13;;;8.23;;
23302;SDS011;11820;48.738;9.092;2024-03-02T07:08:30;10.83;;;9.20;;
23302;SDS011;11820;48.738;9.092;2024-03-02T07:10:56;11.63;;;8.87;;
23302;SDS011;11820;48.738;9.092;2024-03-02T07:13:22;9.57;;;8.37;;
23302;SDS011;11820;48.738;9.092;2024-03-02T07:15:47;9.70;;;7.90;;
23302;SDS011;11820;48.738;9.092;2024-03-02T07:18:27;10.70;;;8.03;;
23302;SDS011;11820;48.738;9.092;2024-03-02T07:20:53;9.90;;;8.80;;
23302;SDS011;11820;48.738;9.092;2024-03-02T07:23:18;8.33;;;7.23;;
23302;SDS011;11820;48.738;9.092;2024-03-02T07:25:45;9.13;;;8.17;;
23302;SDS011;11820;48.738;9.092;2024-03-02T07:28:11;9.90;;;7.40;;
23302;SDS011;11820;48.738;9.092;2024-03-02T07:30:36;9.57;;;8.37;;
23302;SDS011;11820;48.738;9.092;2024-03-02T07:33:04;8.73;;;7.53;;
23302;SDS011;11820;48.738;9.092;2024-03-02T07:35:29;8.93;;;7.57;;
23302;SDS011;11820;48.738;9.092;2024-03-02T07:37:56;11.03;;;8.07;;
23302;SDS011;11820;48.738;9.092;2024-03-02T07:40:22;9.67;;;7.20;;
23302;SDS011;11820;48.738;9.092;2024-03-02T07:42:50;9.00;;;8.07;;
23302;SDS011;11820;48.738;9.092;2024-03-02T07:45:16;8.50;;;7.33;;
23302;SDS011;11820;48.738;9.092;2024-03-02T07:47:41;8.90;;;7.93;;
23302;SDS011;11820;48.738;9.092;2024-03-02T07:50:06;8.87;;;7.37;;
23302;SDS011;11820;48.738;9.092;2024-03-02T07:52:32;8.23;;;6.63;;
23302;SDS011;11820;48.738;9.092;2024-03-02T07:54:58;8.97;;;7.20;;
23302;SDS011;11820;48.738;9.092;2024-03-02T07:57:24;7.37;;;6.37;;
23302;SDS011;11820;48.738;9.092;2024-03-02T07:59:49;7.17;;;6.40;;
23302;SDS011;11820;48.738;9.092;2024-03-02T08:02:15;7.40;;;6.70;;
23302;SDS011;11820;48.738;9.092;2024-03-02T08:04:40;7.30;;;6.47;;
23302;SDS011;11820;48.738;9.092;2024-03-02T08:07:06;9.37;;;6.77;;
23302;SDS011;11820;48.738;9.092;2024-03-02T08:09:31;7.20;;;6.10;;
23302;SDS011;11820;48.738;9.092;2024-03-02T08:11:57;8.50;;;6.73;;
23302;SDS011;11820;48.738;9.092;2024-03-02T08:14:23;7.30;;;6.43;;
23302;SDS011;11820;48.738;9.092;2024-03-02T08:16:48;7.73;;;6.47;;
23302;SDS011;11820;48.738;9.092;2024-03-02T08:19:14;8.00;;;6.30;;
23302;SDS011;11820;48.738;9.092;2024-03-02T08:21:39;9.33;;;6.73;;
23302;SDS011;11820;48.738;9.092;2024-03-02T08:24:05;10.83;;;8.23;;
23302;SDS011;11820;48.738;9.092;2024-03-02T08:26:31;11.30;;;7.80;;
23302;SDS011;11820;48.738;9.092;2024-03-02T08:28:57;10.20;;;7.30;;
23302;SDS011;11820;48.738;9.092;2024-03-02T08:31:23;9.63;;;7.40;;
23302;SDS011;11820;48.738;9.092;2024-03-02T08:33:48;6.47;;;5.60;;
23302;SDS011;11820;48.738;9.092;2024-03-02T08:36:14;8.87;;;5.70;;
23302;SDS011;11820;48.738;9.092;2024-03-02T08:38:40;6.80;;;5.50;;
23302;SDS011;11820;48.738;9.092;2024-03-02T08:41:05;8.37;;;6.30;;
23302;SDS011;11820;48.738;9.092;2024-03-02T08:43:32;6.00;;;4.90;;
23302;SDS011;11820;48.738;9.092;2024-03-02T08:45:57;6.67;;;5.60;;
23302;SDS011;11820;48.738;9.092;2024-03-02T08:48:23;6.20;;;5.60;;
23302;SDS011;11820;48.738;9.092;2024-03-02T08:50:48;5.67;;;5.10;;
23302;SDS011;11820;48.738;9.092;2024-03-02T08:53:13;5.37;;;4.87;;
23302;SDS011;11820;48.738;9.092;2024-03-02T08:55:43;5.43;;;4.77;;
23302;SDS011;11820;48.738;9.092;2024-03-02T08:58:08;5.30;;;4.30;;
23302;SDS011;11820;48.738;9.092;2024-03-02T09:00:33;4.87;;;4.37;;
23302;SDS011;11820;48.738;9.092;2024-03-02T09:02:59;4.37;;;3.97;;
23302;SDS011;11820;48.738;9.092;2024-03-02T09:05:24;3.90;;;3.50;;
23302;SDS011;11820;48.738;9.092;2024-03-02T09:07:49;3.80;;;3.30;;
23302;SDS011;11820;48.738;9.092;2024-03-02T09:10:15;5.27;;;3.83;;
23302;SDS011;11820;48.738;9.092;2024-03-02T09:12:40;4.53;;;3.50;;
23302;SDS011;11820;48.738;9.092;2024-03-02T09:15:06;4.53;;;3.47;;
23302;SDS011;11820;48.738;9.092;2024-03-02T09:17:32;4.97;;;3.20;;
23302;SDS011;11820;48.738;9.092;2024-03-02T09:19:57;5.43;;;3.83;;
23302;SDS011;11820;48.738;9.092;2024-03-02T09:22:23;4.37;;;3.83;;
23302;SDS011;11820;48.738;9.092;2024-03-02T09:24:48;3.80;;;3.37;;
23302;SDS011;11820;48.738;9.092;2024-03-02T09:27:13;3.93;;;3.27;;
23302;SDS011;11820;48.738;9.092;2024-03-02T09:29:39;5.27;;;3.73;;
23302;SDS011;11820;48.738;9.092;2024-03-02T09:32:05;4.10;;;3.63;;
23302;SDS011;11820;48.738;9.092;2024-03-02T09:34:31;4.20;;;3.80;;
23302;SDS011;11820;48.738;9.092;2024-03-02T09:36:56;4.53;;;3.37;;
23302;SDS011;11820;48.738;9.092;2024-03-02T09:39:22;3.90;;;3.50;;
23302;SDS011;11820;48.738;9.092;2024-03-02T09:41:47;3.90;;;3.47;;
23302;SDS011;11820;48.738;9.092;2024-03-02T09:44:13;4.07;;;3.33;;
23302;SDS011;11820;48.738;9.092;2024-03-02T09:46:39;5.27;;;3.37;;
23302;SDS011;11820;48.738;9.092;2024-03-02T09:49:04;4.20;;;3.30;;
23302;SDS011;11820;48.738;9.092;2024-03-02T09:51:30;3.93;;;3.23;;
23302;SDS011;11820;48.738;9.092;2024-03-02T09:53:56;3.60;;;3.30;;
23302;SDS011;11820;48.738;9.092;2024-03-02T09:56:22;3.40;;;3.10;;
23302;SDS011;11820;48.738;9.092;2024-03-02T09:58:47;4.17;;;3.10;;
23302;SDS011;11820;48.738;9.092;2024-03-02T10:01:13;3.03;;;2.70;;
23302;SDS011;11820;48.738;9.092;2024-03-02T10:03:38;3.03;;;2.63;;
23302;SDS011;11820;48.738;9.092;2024-03-02T10:06:23;2.93;;;2.63;;
23302;SDS011;11820;48.738;9.092;2024-03-02T10:08:49;2.80;;;2.30;;
23302;SDS011;11820;48.738;9.092;2024-03-02T10:11:48;2.33;;;2.10;;
23302;SDS011;11820;48.738;9.092;2024-03-02T10:14:10;2.53;;;2.10;;
23302;SDS011;11820;48.738;9.092;2024-03-02T10:16:38;2.10;;;1.73;;
23302;SDS011;11820;48.738;9.092;2024-03-02T10:19:16;2.50;;;2.30;;
23302;SDS011;11820;48.738;9.092;2024-03-02T10:21:48;2.57;;;1.90;;
23302;SDS011;11820;48.738;9.092;2024-03-02T10:24:15;2.43;;;2.00;;
23302;SDS011;11820;48.738;9.092;2024-03-02T10:26:41;2.03;;;1.80;;
23302;SDS011;11820;48.738;9.092;2024-03-02T10:29:07;2.63;;;1.70;;
23302;SDS011;11820;48.738;9.092;2024-03-02T10:31:35;1.93;;;1.73;;
23302;SDS011;11820;48.738;9.092;2024-03-02T10:34:05;2.80;;;1.50;;
23302;SDS011;11820;48.738;9.092;2024-03-02T10:36:31;3.27;;;1.97;;
23302;SDS011;11820;48.738;9.092;2024-03-02T10:38:58;3.70;;;2.20;;
23302;SDS011;11820;48.738;9.092;2024-03-02T10:41:24;1.40;;;1.30;;
23302;SDS011;11820;48.738;9.092;2024-03-02T10:43:52;1.90;;;1.30;;
23302;SDS011;11820;48.738;9.092;2024-03-02T10:46:24;1.57;;;1.40;;
23302;SDS011;11820;48.738;9.092;2024-03-02T10:48:54;2.30;;;1.70;;
23302;SDS011;11820;48.738;9.092;2024-03-02T10:51:20;1.70;;;1.57;;
23302;SDS011;11820;48.738;9.092;2024-03-02T10:53:45;1.47;;;1.37;;
23302;SDS011;11820;48.738;9.092;2024-03-02T10:56:10;2.40;;;1.23;;
23302;SDS011;11820;48.738;9.092;2024-03-02T10:58:43;1.60;;;1.50;;
23302;SDS011;11820;48.738;9.092;2024-03-02T11:01:09;1.77;;;1.37;;
23302;SDS011;11820;48.738;9.092;2024-03-02T11:03:37;1.27;;;1.17;;
23302;SDS011;11820;48.738;9.092;2024-03-02T11:06:07;1.03;;;1.00;;
23302;SDS011;11820;48.738;9.092;2024-03-02T11:08:33;2.40;;;1.57;;
23302;SDS011;11820;48.738;9.092;2024-03-02T11:11:06;1.20;;;1.10;;
23302;SDS011;11820;48.738;9.092;2024-03-02T11:13:33;1.87;;;1.67;;
23302;SDS011;11820;48.738;9.092;2024-03-02T11:15:59;2.20;;;1.77;;
23302;SDS011;11820;48.738;9.092;2024-03-02T11:18:30;4.83;;;2.13;;
23302;SDS011;11820;48.738;9.092;2024-03-02T11:20:57;2.70;;;2.10;;
23302;SDS011;11820;48.738;9.092;2024-03-02T11:23:34;2.20;;;1.53;;
23302;SDS011;11820;48.738;9.092;2024-03-02T11:26:19;1.70;;;1.60;;
23302;SDS011;11820;48.738;9.092;2024-03-02T11:28:50;2.00;;;1.90;;
23302;SDS011;11820;48.738;9.092;2024-03-02T11:31:16;1.70;;;1.60;;
23302;SDS011;11820;48.738;9.092;2024-03-02T11:33:41;3.63;;;1.73;;
23302;SDS011;11820;48.738;9.092;2024-03-02T11:36:08;2.70;;;2.17;;
23302;SDS011;11820;48.738;9.092;2024-03-02T11:38:34;1.90;;;1.70;;
23302;SDS011;11820;48.738;9.092;2024-03-02T11:41:01;3.57;;;3.10;;
23302;SDS011;11820;48.738;9.092;2024-03-02T11:43:36;3.27;;;1.90;;
23302;SDS011;11820;48.738;9.092;2024-03-02T11:46:04;7.03;;;4.50;;
23302;SDS011;11820;48.738;9.092;2024-03-02T11:48:32;3.93;;;1.73;;
23302;SDS011;11820;48.738;9.092;2024-03-02T11:50:58;6.60;;;1.70;;
23302;SDS011;11820;48.738;9.092;2024-03-02T11:53:24;1.63;;;1.40;;
23302;SDS011;11820;48.738;9.092;2024-03-02T11:55:54;1.43;;;1.30;;
23302;SDS011;11820;48.738;9.092;2024-03-02T11:58:20;1.43;;;1.23;;
23302;SDS011;11820;48.738;9.092;2024-03-02T12:00:55;1.40;;;1.30;;
23302;SDS011;11820;48.738;9.092;2024-03-02T12:03:22;1.30;;;1.20;;
23302;SDS011;11820;48.738;9.092;2024-03-02T12:05:50;2.33;;;1.43;;
23302;SDS011;11820;48.738;9.092;2024-03-02T12:08:16;1.57;;;1.47;;
23302;SDS011;11820;48.738;9.092;2024-03-02T12:10:41;2.03;;;1.50;;
23302;SDS011;11820;48.738;9.092;2024-03-02T12:13:07;2.63;;;1.97;;
23302;SDS011;11820;48.738;9.092;2024-03-02T12:15:33;2.63;;;1.43;;
23302;SDS011;11820;48.738;9.092;2024-03-02T12:18:01;1.53;;;1.40;;
23302;SDS011;11820;48.738;9.092;2024-03-02T12:20:28;1.87;;;1.67;;
23302;SDS011;11820;48.738;9.092;2024-03-02T12:22:55;1.67;;;1.40;;
23302;SDS011;11820;48.738;9.092;2024-03-02T12:25:23;2.03;;;1.43;;
23302;SDS011;11820;48.738;9.092;2024-03-02T12:27:51;1.43;;;1.33;;
23302;SDS011;11820;48.738;9.092;2024-03-02T12:30:19;1.90;;;1.73;;
23302;SDS011;11820;48.738;9.092;2024-03-02T12:32:45;1.50;;;1.40;;
23302;SDS011;11820;48.738;9.092;2024-03-02T12:35:11;1.17;;;1.07;;
23302;SDS011;11820;48.738;9.092;2024-03-02T12:37:46;1.27;;;1.10;;
23302;SDS011;11820;48.738;9.092;2024-03-02T12:40:13;1.20;;;1.10;;
23302;SDS011;11820;48.738;9.092;2024-03-02T12:42:40;1.20;;;1.10;;
23302;SDS011;11820;48.738;9.092;2024-03-02T12:45:06;1.00;;;1.00;;
23302;SDS011;11820;48.738;9.092;2024-03-02T12:47:35;1.23;;;1.13;;
23302;SDS011;11820;48.738;9.092;2024-03-02T12:50:01;1.00;;;1.00;;
23302;SDS011;11820;48.738;9.092;2024-03-02T12:52:29;1.00;;;0.87;;
23302;SDS011;11820;48.738;9.092;2024-03-02T12:54:54;1.33;;;1.20;;
23302;SDS011;11820;48.738;9.092;2024-03-02T12:57:26;1.40;;;1.30;;
23302;SDS011;11820;48.738;9.092;2024-03-02T12:59:58;1.30;;;1.13;;
23302;SDS011;11820;48.738;9.092;2024-03-02T13:02:33;1.40;;;1.30;;
23302;SDS011;11820;48.738;9.092;2024-03-02T13:05:00;2.60;;;1.20;;
23302;SDS011;11820;48.738;9.092;2024-03-02T13:07:25;1.70;;;1.20;;
23302;SDS011;11820;48.738;9.092;2024-03-02T13:09:52;1.40;;;1.30;;
23302;SDS011;11820;48.738;9.092;2024-03-02T13:12:20;1.60;;;1.50;;
23302;SDS011;11820;48.738;9.092;2024-03-02T13:14:48;1.43;;;1.23;;
23302;SDS011;11820;48.738;9.092;2024-03-02T13:17:14;1.20;;;1.10;;
23302;SDS011;11820;48.738;9.092;2024-03-02T13:19:50;1.30;;;1.20;;
23302;SDS011;11820;48.738;9.092;2024-03-02T13:22:16;1.37;;;1.27;;
23302;SDS011;11820;48.738;9.092;2024-03-02T13:24:42;1.67;;;1.53;;
23302;SDS011;11820;48.738;9.092;2024-03-02T13:27:07;2.53;;;1.50;;
23302;SDS011;11820;48.738;9.092;2024-03-02T13:29:33;2.30;;;1.70;;
23302;SDS011;11820;48.738;9.092;2024-03-02T13:31:58;3.17;;;1.63;;
23302;SDS011;11820;48.738;9.092;2024-03-02T13:34:23;2.50;;;1.87;;
23302;SDS011;11820;48.738;9.092;2024-03-02T13:36:49;2.93;;;2.03;;
23302;SDS011;11820;48.738;9.092;2024-03-02T13:39:14;3.23;;;2.03;;
23302;SDS011;11820;48.738;9.092;2024-03-02T13:41:40;1.83;;;1.40;;
23302;SDS011;11820;48.738;9.092;2024-03-02T13:44:05;2.80;;;2.07;;
23302;SDS011;11820;48.738;9.092;2024-03-02T13:46:31;4.50;;;1.87;;
23302;SDS011;11820;48.738;9.092;2024-03-02T13:48:56;3.13;;;1.70;;
23302;SDS011;11820;48.738;9.092;2024-03-02T13:51:22;2.40;;;1.87;;
23302;SDS011;11820;48.738;9.092;2024-03-02T13:53:47;2.03;;;1.83;;
23302;SDS011;11820;48.738;9.092;2024-03-02T13:56:13;2.87;;;2.30;;
23302;SDS011;11820;48.738;9.092;2024-03-02T13:58:38;3.33;;;1.93;;
23302;SDS011;11820;48.738;9.092;2024-03-02T14:01:04;1.43;;;1.33;;
23302;SDS011;11820;48.738;9.092;2024-03-02T14:03:30;2.43;;;1.67;;
23302;SDS011;11820;48.738;9.092;2024-03-02T14:05:55;1.43;;;1.30;;
23302;SDS011;11820;48.738;9.092;2024-03-02T14:08:21;1.70;;;1.57;;
23302;SDS011;11820;48.738;9.092;2024-03-02T14:10:46;1.13;;;1.10;;
23302;SDS011;11820;48.738;9.092;2024-03-02T14:13:12;1.57;;;1.43;;
23302;SDS011;11820;48.738;9.092;2024-03-02T14:15:37;2.53;;;1.40;;
23302;SDS011;11820;48.738;9.092;2024-03-02T14:18:04;1.77;;;1.43;;
23302;SDS011;11820;48.738;9.092;2024-03-02T14:20:30;2.23;;;1.57;;
23302;SDS011;11820;48.738;9.092;2024-03-02T14:22:57;1.73;;;1.40;;
23302;SDS011;11820;48.738;9.092;2024-03-02T14:25:24;1.40;;;1.30;;
23302;SDS011;11820;48.738;9.092;2024-03-02T14:27:49;1.20;;;1.10;;
23302;SDS011;11820;48.738;9.092;2024-03-02T14:30:14;1.50;;;1.30;;
23302;SDS011;11820;48.738;9.092;2024-03-02T14:32:40;2.23;;;1.10;;
23302;SDS011;11820;48.738;9.092;2024-03-02T14:35:05;2.17;;;1.30;;
23302;SDS011;11820;48.738;9.092;2024-03-02T14:37:34;3.37;;;1.37;;
23302;SDS011;11820;48.738;9.092;2024-03-02T14:39:59;2.27;;;1.70;;